sensor_id;sensor_type;location;lat;lon;timestamp;P1;durP1;ratioP1;P2;durP2;ratioP2
76210;SDS011;65003;49.518;11.280;2023-07-13T00:02:04;1.70;;;1.30;;
76210;SDS011;65003;49.518;11.280;2023-07-13T00:04:31;2.23;;;1.40;;
76210;SDS011;65003;49.518;11.280;2023-07-13T00:06:58;1.33;;;1.10;;
76210;SDS011;65003;49.518;11.280;2023-07-13T00:09:24;4.77;;;1.60;;
76210;SDS011;65003;49.518;11.280;2023-07-13T00:11:53;3.30;;;1.30;;
76210;SDS011;65003;49.518;11.280;2023-07-13T00:14:18;2.07;;;1.43;;
76210;SDS011;65003;49.518;11.280;2023-07-13T00:16:44;1.40;;;1.30;;
76210;SDS011;65003;49.518;11.280;2023-07-13T00:19:12;3.00;;;1.50;;
76210;SDS011;65003;49.518;11.280;2023-07-13T00:21:38;1.83;;;1.50;;
76210;SDS011;65003;49.518;11.280;2023-07-13T00:24:05;2.00;;;1.27;;
76210;SDS011;65003;49.518;11.280;2023-07-13T00:26:31;7.10;;;1.60;;
76210;SDS011;65003;49.518;11.280;2023-07-13T00:28:58;2.00;;;1.40;;
76210;SDS011;65003;49.518;11.280;2023-07-13T00:31:24;1.90;;;1.20;;
76210;SDS011;65003;49.518;11.280;2023-07-13T00:33:51;1.27;;;1.17;;
76210;SDS011;65003;49.518;11.280;2023-07-13T00:36:19;2.10;;;1.20;;
76210;SDS011;65003;49.518;11.280;2023-07-13T00:38:44;1.47;;;1.20;;
76210;SDS011;65003;49.518;11.280;2023-07-13T00:41:11;2.53;;;1.20;;
76210;SDS011;65003;49.518;11.280;2023-07-13T00:43:38;2.00;;;1.20;;
76210;SDS011;65003;49.518;11.280;2023-07-13T00:46:10;2.13;;;0.93;;
76210;SDS011;65003;49.518;11.280;2023-07-13T00:48:34;6.33;;;1.70;;
76210;SDS011;65003;49.518;11.280;2023-07-13T00:51:01;1.53;;;1.00;;
76210;SDS011;65003;49.518;11.280;2023-07-13T00:53:28;2.20;;;1.30;;
76210;SDS011;65003;49.518;11.280;2023-07-13T00:55:54;1.80;;;1.30;;
76210;SDS011;65003;49.518;11.280;2023-07-13T00:58:21;1.83;;;1.10;;
76210;SDS011;65003;49.518;11.280;2023-07-13T01:00:47;4.63;;;1.23;;
76210;SDS011;65003;49.518;11.280;2023-07-13T01:03:14;2.33;;;1.20;;
76210;SDS011;65003;49.518;11.280;2023-07-13T01:05:40;2.80;;;1.50;;
76210;SDS011;65003;49.518;11.280;2023-07-13T01:08:07;2.77;;;1.53;;
76210;SDS011;65003;49.518;11.280;2023-07-13T01:10:34;1.27;;;1.00;;
76210;SDS011;65003;49.518;11.280;2023-07-13T01:13:00;1.70;;;1.20;;
76210;SDS011;65003;49.518;11.280;2023-07-13T01:15:34;2.57;;;1.50;;
76210;SDS011;65003;49.518;11.280;2023-07-13T01:18:00;1.73;;;1.10;;
76210;SDS011;65003;49.518;11.280;2023-07-13T01:20:27;1.83;;;1.40;;
76210;SDS011;65003;49.518;11.280;2023-07-13T01:22:53;2.30;;;1.20;;
76210;SDS011;65003;49.518;11.280;2023-07-13T01:25:20;2.87;;;1.30;;
76210;SDS011;65003;49.518;11.280;2023-07-13T01:27:47;2.13;;;1.50;;
76210;SDS011;65003;49.518;11.280;2023-07-13T01:30:13;2.73;;;1.50;;
76210;SDS011;65003;49.518;11.280;2023-07-13T01:32:40;3.67;;;1.33;;
76210;SDS011;65003;49.518;11.280;2023-07-13T01:35:07;2.20;;;1.47;;
76210;SDS011;65003;49.518;11.280;2023-07-13T01:37:33;2.10;;;1.30;;
76210;SDS011;65003;49.518;11.280;2023-07-13T01:40:00;3.07;;;1.37;;
76210;SDS011;65003;49.518;11.280;2023-07-13T01:42:27;1.40;;;1.00;;
76210;SDS011;65003;49.518;11.280;2023-07-13T01:44:53;3.10;;;1.60;;
76210;SDS011;65003;49.518;11.280;2023-07-13T01:47:19;3.07;;;1.10;;
76210;SDS011;65003;49.518;11.280;2023-07-13T01:49:46;1.37;;;1.03;;
76210;SDS011;65003;49.518;11.280;2023-07-13T01:52:13;1.77;;;1.30;;
76210;SDS011;65003;49.518;11.280;2023-07-13T01:54:39;2.77;;;1.63;;
76210;SDS011;65003;49.518;11.280;2023-07-13T01:57:06;3.83;;;1.63;;
76210;SDS011;65003;49.518;11.280;2023-07-13T01:59:32;1.77;;;1.30;;
76210;SDS011;65003;49.518;11.280;2023-07-13T02:01:59;1.97;;;1.07;;
76210;SDS011;65003;49.518;11.280;2023-07-13T02:04:25;4.33;;;1.13;;
76210;SDS011;65003;49.518;11.280;2023-07-13T02:06:52;2.50;;;1.00;;
76210;SDS011;65003;49.518;11.280;2023-07-13T02:09:19;2.87;;;1.53;;
76210;SDS011;65003;49.518;11.280;2023-07-13T02:11:45;2.87;;;1.20;;
76210;SDS011;65003;49.518;11.280;2023-07-13T02:14:12;1.83;;;1.40;;
76210;SDS011;65003;49.518;11.280;2023-07-13T02:16:39;1.00;;;0.90;;
76210;SDS011;65003;49.518;11.280;2023-07-13T02:19:05;2.40;;;1.23;;
76210;SDS011;65003;49.518;11.280;2023-07-13T02:21:32;1.90;;;1.20;;
76210;SDS011;65003;49.518;11.280;2023-07-13T02:23:59;1.47;;;1.00;;
76210;SDS011;65003;49.518;11.280;2023-07-13T02:26:25;4.63;;;1.10;;
76210;SDS011;65003;49.518;11.280;2023-07-13T02:28:52;2.27;;;1.40;;
76210;SDS011;65003;49.518;11.280;2023-07-13T02:31:18;2.97;;;1.30;;
76210;SDS011;65003;49.518;11.280;2023-07-13T02:33:45;1.47;;;1.20;;
76210;SDS011;65003;49.518;11.280;2023-07-13T02:36:12;2.83;;;1.00;;
76210;SDS011;65003;49.518;11.280;2023-07-13T02:38:38;2.87;;;1.20;;
76210;SDS011;65003;49.518;11.280;2023-07-13T02:41:06;1.60;;;1.27;;
76210;SDS011;65003;49.518;11.280;2023-07-13T02:43:31;1.83;;;1.20;;
76210;SDS011;65003;49.518;11.280;2023-07-13T02:45:59;1.67;;;1.30;;
76210;SDS011;65003;49.518;11.280;2023-07-13T02:48:25;3.30;;;1.07;;
76210;SDS011;65003;49.518;11.280;2023-07-13T02:50:52;3.10;;;1.80;;
76210;SDS011;65003;49.518;11.280;2023-07-13T02:53:18;2.20;;;1.50;;
76210;SDS011;65003;49.518;11.280;2023-07-13T02:55:45;2.80;;;1.30;;
76210;SDS011;65003;49.518;11.280;2023-07-13T02:58:12;1.17;;;1.00;;
76210;SDS011;65003;49.518;11.280;2023-07-13T03:00:38;4.83;;;1.80;;
76210;SDS011;65003;49.518;11.280;2023-07-13T03:03:05;1.60;;;1.20;;
76210;SDS011;65003;49.518;11.280;2023-07-13T03:05:32;2.20;;;1.10;;
76210;SDS011;65003;49.518;11.280;2023-07-13T03:07:58;2.07;;;1.40;;
76210;SDS011;65003;49.518;11.280;2023-07-13T03:10:25;1.60;;;1.27;;
76210;SDS011;65003;49.518;11.280;2023-07-13T03:12:51;1.87;;;1.30;;
76210;SDS011;65003;49.518;11.280;2023-07-13T03:15:18;2.00;;;1.10;;
76210;SDS011;65003;49.518;11.280;2023-07-13T03:17:45;2.00;;;1.40;;
76210;SDS011;65003;49.518;11.280;2023-07-13T03:20:11;1.90;;;1.27;;
76210;SDS011;65003;49.518;11.280;2023-07-13T03:22:38;3.23;;;1.50;;
76210;SDS011;65003;49.518;11.280;2023-07-13T03:25:05;1.73;;;1.20;;
76210;SDS011;65003;49.518;11.280;2023-07-13T03:27:31;2.87;;;1.20;;
76210;SDS011;65003;49.518;11.280;2023-07-13T03:29:58;2.83;;;1.30;;
76210;SDS011;65003;49.518;11.280;2023-07-13T03:32:24;1.90;;;1.37;;
76210;SDS011;65003;49.518;11.280;2023-07-13T03:34:51;1.90;;;1.00;;
76210;SDS011;65003;49.518;11.280;2023-07-13T03:37:18;3.47;;;1.20;;
76210;SDS011;65003;49.518;11.280;2023-07-13T03:39:44;1.80;;;1.30;;
76210;SDS011;65003;49.518;11.280;2023-07-13T03:42:11;4.50;;;1.97;;
76210;SDS011;65003;49.518;11.280;2023-07-13T03:44:39;1.33;;;1.07;;
76210;SDS011;65003;49.518;11.280;2023-07-13T03:47:04;2.67;;;1.23;;
76210;SDS011;65003;49.518;11.280;2023-07-13T03:49:31;2.87;;;1.30;;
76210;SDS011;65003;49.518;11.280;2023-07-13T03:51:57;1.33;;;1.23;;
76210;SDS011;65003;49.518;11.280;2023-07-13T03:54:24;1.40;;;1.30;;
76210;SDS011;65003;49.518;11.280;2023-07-13T03:56:50;6.17;;;2.03;;
76210;SDS011;65003;49.518;11.280;2023-07-13T03:59:17;1.70;;;1.13;;
76210;SDS011;65003;49.518;11.280;2023-07-13T04:01:44;2.30;;;1.40;;
76210;SDS011;65003;49.518;11.280;2023-07-13T04:04:10;4.40;;;1.40;;
76210;SDS011;65003;49.518;11.280;2023-07-13T04:06:37;3.77;;;1.20;;
76210;SDS011;65003;49.518;11.280;2023-07-13T04:09:04;7.93;;;2.10;;
76210;SDS011;65003;49.518;11.280;2023-07-13T04:11:31;2.00;;;1.03;;
76210;SDS011;65003;49.518;11.280;2023-07-13T04:13:57;1.77;;;1.37;;
76210;SDS011;65003;49.518;11.280;2023-07-13T04:16:24;2.43;;;1.47;;
76210;SDS011;65003;49.518;11.280;2023-07-13T04:18:51;1.70;;;1.10;;
76210;SDS011;65003;49.518;11.280;2023-07-13T04:21:17;3.07;;;1.60;;
76210;SDS011;65003;49.518;11.280;2023-07-13T04:23:44;4.57;;;1.13;;
76210;SDS011;65003;49.518;11.280;2023-07-13T04:26:10;2.77;;;1.30;;
76210;SDS011;65003;49.518;11.280;2023-07-13T04:28:38;3.22;;;1.22;;
76210;SDS011;65003;49.518;11.280;2023-07-13T04:31:04;4.47;;;1.33;;
76210;SDS011;65003;49.518;11.280;2023-07-13T04:33:32;2.80;;;1.93;;
76210;SDS011;65003;49.518;11.280;2023-07-13T04:35:58;4.97;;;3.77;;
76210;SDS011;65003;49.518;11.280;2023-07-13T04:38:27;4.57;;;2.50;;
76210;SDS011;65003;49.518;11.280;2023-07-13T04:40:54;3.23;;;1.80;;
76210;SDS011;65003;49.518;11.280;2023-07-13T04:43:22;3.73;;;1.20;;
76210;SDS011;65003;49.518;11.280;2023-07-13T04:45:49;2.37;;;1.50;;
76210;SDS011;65003;49.518;11.280;2023-07-13T04:48:15;2.50;;;1.30;;
76210;SDS011;65003;49.518;11.280;2023-07-13T04:50:42;3.17;;;2.00;;
76210;SDS011;65003;49.518;11.280;2023-07-13T04:53:09;2.07;;;1.67;;
76210;SDS011;65003;49.518;11.280;2023-07-13T04:55:35;2.07;;;1.50;;
76210;SDS011;65003;49.518;11.280;2023-07-13T04:58:01;2.70;;;1.80;;
76210;SDS011;65003;49.518;11.280;2023-07-13T05:00:28;3.53;;;1.83;;
76210;SDS011;65003;49.518;11.280;2023-07-13T05:02:55;4.10;;;1.70;;
76210;SDS011;65003;49.518;11.280;2023-07-13T05:05:21;2.93;;;1.37;;
76210;SDS011;65003;49.518;11.280;2023-07-13T05:07:48;1.50;;;1.10;;
76210;SDS011;65003;49.518;11.280;2023-07-13T05:10:15;3.57;;;1.73;;
76210;SDS011;65003;49.518;11.280;2023-07-13T05:12:41;4.63;;;1.57;;
76210;SDS011;65003;49.518;11.280;2023-07-13T05:15:09;1.93;;;0.90;;
76210;SDS011;65003;49.518;11.280;2023-07-13T05:17:35;3.03;;;1.77;;
76210;SDS011;65003;49.518;11.280;2023-07-13T05:20:02;2.93;;;1.80;;
76210;SDS011;65003;49.518;11.280;2023-07-13T05:22:28;1.73;;;1.33;;
76210;SDS011;65003;49.518;11.280;2023-07-13T05:24:55;2.33;;;1.47;;
76210;SDS011;65003;49.518;11.280;2023-07-13T05:27:21;2.13;;;1.30;;
76210;SDS011;65003;49.518;11.280;2023-07-13T05:29:48;2.57;;;1.63;;
76210;SDS011;65003;49.518;11.280;2023-07-13T05:32:15;4.23;;;1.30;;
76210;SDS011;65003;49.518;11.280;2023-07-13T05:34:41;3.20;;;1.50;;
76210;SDS011;65003;49.518;11.280;2023-07-13T05:37:08;4.37;;;1.40;;
76210;SDS011;65003;49.518;11.280;2023-07-13T05:39:34;2.97;;;1.33;;
76210;SDS011;65003;49.518;11.280;2023-07-13T05:42:02;3.77;;;1.00;;
76210;SDS011;65003;49.518;11.280;2023-07-13T05:44:28;1.97;;;1.00;;
76210;SDS011;65003;49.518;11.280;2023-07-13T05:46:55;3.37;;;1.40;;
76210;SDS011;65003;49.518;11.280;2023-07-13T05:49:22;17.73;;;14.67;;
76210;SDS011;65003;49.518;11.280;2023-07-13T05:51:48;10.77;;;9.67;;
76210;SDS011;65003;49.518;11.280;2023-07-13T05:54:15;8.40;;;6.13;;
76210;SDS011;65003;49.518;11.280;2023-07-13T05:56:41;4.37;;;3.57;;
76210;SDS011;65003;49.518;11.280;2023-07-13T05:59:08;6.00;;;1.50;;
76210;SDS011;65003;49.518;11.280;2023-07-13T06:01:34;2.33;;;1.83;;
76210;SDS011;65003;49.518;11.280;2023-07-13T06:04:01;4.73;;;3.03;;
76210;SDS011;65003;49.518;11.280;2023-07-13T06:06:28;3.33;;;1.50;;
76210;SDS011;65003;49.518;11.280;2023-07-13T06:08:54;1.83;;;1.37;;
76210;SDS011;65003;49.518;11.280;2023-07-13T06:11:22;1.60;;;1.03;;
76210;SDS011;65003;49.518;11.280;2023-07-13T06:13:48;1.73;;;0.80;;
76210;SDS011;65003;49.518;11.280;2023-07-13T06:16:14;2.07;;;1.00;;
76210;SDS011;65003;49.518;11.280;2023-07-13T06:18:41;1.73;;;1.10;;
76210;SDS011;65003;49.518;11.280;2023-07-13T06:21:09;2.97;;;1.00;;
76210;SDS011;65003;49.518;11.280;2023-07-13T06:23:35;1.10;;;0.83;;
76210;SDS011;65003;49.518;11.280;2023-07-13T06:26:03;2.20;;;1.10;;
76210;SDS011;65003;49.518;11.280;2023-07-13T06:28:29;1.53;;;0.80;;
76210;SDS011;65003;49.518;11.280;2023-07-13T06:30:55;3.80;;;1.10;;
76210;SDS011;65003;49.518;11.280;2023-07-13T06:33:22;2.30;;;1.10;;
76210;SDS011;65003;49.518;11.280;2023-07-13T06:35:49;1.83;;;0.90;;
76210;SDS011;65003;49.518;11.280;2023-07-13T06:38:15;4.53;;;1.90;;
76210;SDS011;65003;49.518;11.280;2023-07-13T06:40:42;2.20;;;1.20;;
76210;SDS011;65003;49.518;11.280;2023-07-13T06:43:08;1.60;;;1.00;;
76210;SDS011;65003;49.518;11.280;2023-07-13T06:45:40;5.40;;;1.20;;
76210;SDS011;65003;49.518;11.280;2023-07-13T06:48:12;1.67;;;1.07;;
76210;SDS011;65003;49.518;11.280;2023-07-13T06:50:38;2.07;;;1.27;;
76210;SDS011;65003;49.518;11.280;2023-07-13T06:53:05;2.37;;;0.93;;
76210;SDS011;65003;49.518;11.280;2023-07-13T06:55:31;1.50;;;0.83;;
76210;SDS011;65003;49.518;11.280;2023-07-13T06:57:59;3.63;;;0.80;;
76210;SDS011;65003;49.518;11.280;2023-07-13T07:00:25;5.37;;;1.10;;
76210;SDS011;65003;49.518;11.280;2023-07-13T07:02:52;2.40;;;0.80;;
76210;SDS011;65003;49.518;11.280;2023-07-13T07:05:18;2.83;;;1.20;;
76210;SDS011;65003;49.518;11.280;2023-07-13T07:07:45;3.00;;;1.10;;
76210;SDS011;65003;49.518;11.280;2023-07-13T07:10:12;1.63;;;1.00;;
76210;SDS011;65003;49.518;11.280;2023-07-13T07:12:38;3.67;;;0.90;;
76210;SDS011;65003;49.518;11.280;2023-07-13T07:15:05;3.30;;;1.00;;
76210;SDS011;65003;49.518;11.280;2023-07-13T07:17:32;1.80;;;1.07;;
76210;SDS011;65003;49.518;11.280;2023-07-13T07:19:58;1.93;;;0.93;;
76210;SDS011;65003;49.518;11.280;2023-07-13T07:22:26;3.60;;;0.73;;
76210;SDS011;65003;49.518;11.280;2023-07-13T07:24:52;2.63;;;1.07;;
76210;SDS011;65003;49.518;11.280;2023-07-13T07:27:19;1.20;;;0.80;;
76210;SDS011;65003;49.518;11.280;2023-07-13T07:29:45;2.67;;;1.00;;
76210;SDS011;65003;49.518;11.280;2023-07-13T07:32:12;2.10;;;1.20;;
76210;SDS011;65003;49.518;11.280;2023-07-13T07:34:38;1.87;;;0.90;;
76210;SDS011;65003;49.518;11.280;2023-07-13T07:37:05;3.57;;;1.00;;
76210;SDS011;65003;49.518;11.280;2023-07-13T07:39:32;3.23;;;0.87;;
76210;SDS011;65003;49.518;11.280;2023-07-13T07:41:58;4.23;;;0.97;;
76210;SDS011;65003;49.518;11.280;2023-07-13T07:44:25;3.27;;;1.10;;
76210;SDS011;65003;49.518;11.280;2023-07-13T07:46:52;1.73;;;0.70;;
76210;SDS011;65003;49.518;11.280;2023-07-13T07:49:19;3.17;;;1.07;;
76210;SDS011;65003;49.518;11.280;2023-07-13T07:51:46;1.43;;;0.70;;
76210;SDS011;65003;49.518;11.280;2023-07-13T07:54:12;1.83;;;1.07;;
76210;SDS011;65003;49.518;11.280;2023-07-13T07:56:39;1.53;;;0.90;;
76210;SDS011;65003;49.518;11.280;2023-07-13T07:59:06;3.27;;;1.00;;
76210;SDS011;65003;49.518;11.280;2023-07-13T08:01:32;3.70;;;1.00;;
76210;SDS011;65003;49.518;11.280;2023-07-13T08:03:59;2.97;;;1.00;;
76210;SDS011;65003;49.518;11.280;2023-07-13T08:06:25;3.53;;;1.03;;
76210;SDS011;65003;49.518;11.280;2023-07-13T08:08:52;2.57;;;0.90;;
76210;SDS011;65003;49.518;11.280;2023-07-13T08:11:20;6.10;;;1.10;;
76210;SDS011;65003;49.518;11.280;2023-07-13T08:13:45;1.20;;;0.83;;
76210;SDS011;65003;49.518;11.280;2023-07-13T08:16:12;1.73;;;0.97;;
76210;SDS011;65003;49.518;11.280;2023-07-13T08:18:39;3.13;;;0.90;;
76210;SDS011;65003;49.518;11.280;2023-07-13T08:21:05;4.30;;;0.80;;
76210;SDS011;65003;49.518;11.280;2023-07-13T08:23:32;4.30;;;1.17;;
76210;SDS011;65003;49.518;11.280;2023-07-13T08:25:58;1.67;;;0.87;;
76210;SDS011;65003;49.518;11.280;2023-07-13T08:28:25;2.13;;;0.90;;
76210;SDS011;65003;49.518;11.280;2023-07-13T08:30:51;4.70;;;1.13;;
76210;SDS011;65003;49.518;11.280;2023-07-13T08:33:18;2.53;;;1.10;;
76210;SDS011;65003;49.518;11.280;2023-07-13T08:35:46;3.03;;;0.83;;
76210;SDS011;65003;49.518;11.280;2023-07-13T08:38:12;1.80;;;0.90;;
76210;SDS011;65003;49.518;11.280;2023-07-13T08:40:39;1.85;;;1.10;;
76210;SDS011;65003;49.518;11.280;2023-07-13T08:43:06;3.57;;;0.80;;
76210;SDS011;65003;49.518;11.280;2023-07-13T08:45:38;1.55;;;0.80;;
76210;SDS011;65003;49.518;11.280;2023-07-13T08:48:11;2.90;;;0.70;;
76210;SDS011;65003;49.518;11.280;2023-07-13T08:50:42;2.43;;;0.90;;
76210;SDS011;65003;49.518;11.280;2023-07-13T08:53:05;2.47;;;0.77;;
76210;SDS011;65003;49.518;11.280;2023-07-13T08:55:33;2.13;;;0.80;;
76210;SDS011;65003;49.518;11.280;2023-07-13T08:58:00;2.13;;;0.67;;
76210;SDS011;65003;49.518;11.280;2023-07-13T09:00:26;2.27;;;0.60;;
76210;SDS011;65003;49.518;11.280;2023-07-13T09:02:56;1.70;;;0.77;;
76210;SDS011;65003;49.518;11.280;2023-07-13T09:05:25;2.13;;;0.90;;
76210;SDS011;65003;49.518;11.280;2023-07-13T09:08:07;1.63;;;0.80;;
76210;SDS011;65003;49.518;11.280;2023-07-13T09:15:44;3.07;;;0.60;;
76210;SDS011;65003;49.518;11.280;2023-07-13T09:18:11;2.27;;;1.03;;
76210;SDS011;65003;49.518;11.280;2023-07-13T09:20:54;3.33;;;1.30;;
76210;SDS011;65003;49.518;11.280;2023-07-13T09:23:22;1.67;;;0.90;;
76210;SDS011;65003;49.518;11.280;2023-07-13T09:25:48;0.90;;;0.70;;
76210;SDS011;65003;49.518;11.280;2023-07-13T09:28:15;1.97;;;0.60;;
76210;SDS011;65003;49.518;11.280;2023-07-13T09:30:46;3.00;;;0.50;;
76210;SDS011;65003;49.518;11.280;2023-07-13T09:33:26;1.30;;;0.60;;
76210;SDS011;65003;49.518;11.280;2023-07-13T09:35:52;2.97;;;0.97;;
76210;SDS011;65003;49.518;11.280;2023-07-13T09:38:19;5.33;;;0.93;;
76210;SDS011;65003;49.518;11.280;2023-07-13T09:40:49;2.00;;;0.50;;
76210;SDS011;65003;49.518;11.280;2023-07-13T09:43:15;3.07;;;0.97;;
76210;SDS011;65003;49.518;11.280;2023-07-13T09:45:42;1.27;;;0.70;;
76210;SDS011;65003;49.518;11.280;2023-07-13T09:48:12;0.73;;;0.50;;
76210;SDS011;65003;49.518;11.280;2023-07-13T09:50:37;1.63;;;0.57;;
76210;SDS011;65003;49.518;11.280;2023-07-13T09:53:04;4.43;;;0.90;;
76210;SDS011;65003;49.518;11.280;2023-07-13T09:55:31;4.23;;;0.80;;
76210;SDS011;65003;49.518;11.280;2023-07-13T09:57:59;4.77;;;0.80;;
76210;SDS011;65003;49.518;11.280;2023-07-13T10:00:26;2.03;;;0.80;;
76210;SDS011;65003;49.518;11.280;2023-07-13T10:03:01;2.90;;;0.90;;
76210;SDS011;65003;49.518;11.280;2023-07-13T10:05:36;1.93;;;0.80;;
76210;SDS011;65003;49.518;11.280;2023-07-13T10:07:55;1.43;;;0.70;;
76210;SDS011;65003;49.518;11.280;2023-07-13T10:10:22;1.67;;;0.77;;
76210;SDS011;65003;49.518;11.280;2023-07-13T10:12:48;1.80;;;0.87;;
76210;SDS011;65003;49.518;11.280;2023-07-13T10:15:16;3.30;;;0.90;;
76210;SDS011;65003;49.518;11.280;2023-07-13T10:17:41;2.20;;;0.70;;
76210;SDS011;65003;49.518;11.280;2023-07-13T10:20:08;2.60;;;0.60;;
76210;SDS011;65003;49.518;11.280;2023-07-13T10:22:44;3.23;;;0.70;;
76210;SDS011;65003;49.518;11.280;2023-07-13T10:25:15;2.13;;;0.80;;
76210;SDS011;65003;49.518;11.280;2023-07-13T10:27:41;2.37;;;0.63;;
76210;SDS011;65003;49.518;11.280;2023-07-13T10:30:17;1.33;;;0.90;;
76210;SDS011;65003;49.518;11.280;2023-07-13T10:32:43;1.93;;;0.90;;
76210;SDS011;65003;49.518;11.280;2023-07-13T10:35:11;2.83;;;0.77;;
76210;SDS011;65003;49.518;11.280;2023-07-13T10:37:43;1.47;;;0.63;;
76210;SDS011;65003;49.518;11.280;2023-07-13T10:40:11;2.93;;;0.87;;
76210;SDS011;65003;49.518;11.280;2023-07-13T10:42:35;1.20;;;0.60;;
76210;SDS011;65003;49.518;11.280;2023-07-13T10:45:01;2.97;;;1.00;;
76210;SDS011;65003;49.518;11.280;2023-07-13T10:47:28;2.63;;;1.10;;
76210;SDS011;65003;49.518;11.280;2023-07-13T10:49:56;1.70;;;0.87;;
76210;SDS011;65003;49.518;11.280;2023-07-13T10:52:40;3.20;;;0.77;;
76210;SDS011;65003;49.518;11.280;2023-07-13T10:55:29;3.40;;;1.00;;
76210;SDS011;65003;49.518;11.280;2023-07-13T10:57:40;4.10;;;0.90;;
76210;SDS011;65003;49.518;11.280;2023-07-13T11:00:14;2.53;;;0.80;;
76210;SDS011;65003;49.518;11.280;2023-07-13T11:02:39;4.00;;;0.93;;
76210;SDS011;65003;49.518;11.280;2023-07-13T11:08:03;2.03;;;1.00;;
76210;SDS011;65003;49.518;11.280;2023-07-13T11:13:27;2.23;;;0.90;;
76210;SDS011;65003;49.518;11.280;2023-07-13T11:15:43;1.57;;;0.80;;
76210;SDS011;65003;49.518;11.280;2023-07-13T11:18:02;3.43;;;0.77;;
76210;SDS011;65003;49.518;11.280;2023-07-13T11:20:33;1.73;;;0.73;;
76210;SDS011;65003;49.518;11.280;2023-07-13T11:25:34;2.17;;;0.90;;
76210;SDS011;65003;49.518;11.280;2023-07-13T11:28:14;4.73;;;1.10;;
76210;SDS011;65003;49.518;11.280;2023-07-13T11:30:46;1.80;;;0.90;;
76210;SDS011;65003;49.518;11.280;2023-07-13T11:33:14;3.07;;;1.00;;
76210;SDS011;65003;49.518;11.280;2023-07-13T11:36:07;1.70;;;0.60;;
76210;SDS011;65003;49.518;11.280;2023-07-13T11:38:35;2.50;;;0.90;;
76210;SDS011;65003;49.518;11.280;2023-07-13T11:41:01;2.90;;;0.80;;
76210;SDS011;65003;49.518;11.280;2023-07-13T11:43:27;1.83;;;0.70;;
76210;SDS011;65003;49.518;11.280;2023-07-13T11:45:53;2.83;;;0.70;;
76210;SDS011;65003;49.518;11.280;2023-07-13T11:48:22;1.30;;;0.70;;
76210;SDS011;65003;49.518;11.280;2023-07-13T11:50:59;3.97;;;0.80;;
76210;SDS011;65003;49.518;11.280;2023-07-13T11:53:26;1.90;;;0.67;;
76210;SDS011;65003;49.518;11.280;2023-07-13T11:55:52;2.33;;;0.90;;
76210;SDS011;65003;49.518;11.280;2023-07-13T11:58:19;1.50;;;0.60;;
76210;SDS011;65003;49.518;11.280;2023-07-13T12:00:45;3.33;;;0.97;;
76210;SDS011;65003;49.518;11.280;2023-07-13T12:03:19;1.77;;;1.03;;
76210;SDS011;65003;49.518;11.280;2023-07-13T12:05:38;3.27;;;0.80;;
76210;SDS011;65003;49.518;11.280;2023-07-13T12:08:09;2.63;;;1.00;;
76210;SDS011;65003;49.518;11.280;2023-07-13T12:10:35;1.30;;;0.83;;
76210;SDS011;65003;49.518;11.280;2023-07-13T12:13:02;1.53;;;0.97;;
76210;SDS011;65003;49.518;11.280;2023-07-13T12:15:46;3.57;;;0.90;;
76210;SDS011;65003;49.518;11.280;2023-07-13T12:18:12;3.23;;;1.00;;
76210;SDS011;65003;49.518;11.280;2023-07-13T12:20:39;3.13;;;0.97;;
76210;SDS011;65003;49.518;11.280;2023-07-13T12:23:14;2.87;;;1.20;;
76210;SDS011;65003;49.518;11.280;2023-07-13T12:25:48;1.97;;;1.00;;
76210;SDS011;65003;49.518;11.280;2023-07-13T12:28:22;2.00;;;0.60;;
76210;SDS011;65003;49.518;11.280;2023-07-13T12:30:48;6.73;;;1.43;;
76210;SDS011;65003;49.518;11.280;2023-07-13T12:33:15;3.13;;;0.90;;
76210;SDS011;65003;49.518;11.280;2023-07-13T12:35:43;6.77;;;1.00;;
76210;SDS011;65003;49.518;11.280;2023-07-13T12:38:09;3.07;;;1.03;;
76210;SDS011;65003;49.518;11.280;2023-07-13T12:40:35;3.27;;;0.90;;
76210;SDS011;65003;49.518;11.280;2023-07-13T12:43:02;2.60;;;0.97;;
76210;SDS011;65003;49.518;11.280;2023-07-13T12:45:30;1.90;;;1.10;;
76210;SDS011;65003;49.518;11.280;2023-07-13T12:47:58;3.90;;;1.50;;
76210;SDS011;65003;49.518;11.280;2023-07-13T12:50:29;4.53;;;1.10;;
76210;SDS011;65003;49.518;11.280;2023-07-13T12:52:56;3.47;;;1.00;;
76210;SDS011;65003;49.518;11.280;2023-07-13T12:55:21;1.63;;;0.80;;
76210;SDS011;65003;49.518;11.280;2023-07-13T12:57:50;3.57;;;0.97;;
76210;SDS011;65003;49.518;11.280;2023-07-13T13:00:22;2.63;;;1.00;;
76210;SDS011;65003;49.518;11.280;2023-07-13T13:02:49;2.83;;;0.90;;
76210;SDS011;65003;49.518;11.280;2023-07-13T13:05:15;1.70;;;0.90;;
76210;SDS011;65003;49.518;11.280;2023-07-13T13:07:42;0.80;;;0.70;;
76210;SDS011;65003;49.518;11.280;2023-07-13T13:10:12;4.10;;;1.20;;
76210;SDS011;65003;49.518;11.280;2023-07-13T13:12:38;0.73;;;0.70;;
76210;SDS011;65003;49.518;11.280;2023-07-13T13:15:05;1.70;;;0.83;;
76210;SDS011;65003;49.518;11.280;2023-07-13T13:17:32;1.93;;;0.83;;
76210;SDS011;65003;49.518;11.280;2023-07-13T13:19:59;1.40;;;0.80;;
76210;SDS011;65003;49.518;11.280;2023-07-13T13:22:26;1.60;;;0.80;;
76210;SDS011;65003;49.518;11.280;2023-07-13T13:24:52;6.43;;;1.00;;
76210;SDS011;65003;49.518;11.280;2023-07-13T13:27:21;6.33;;;1.20;;
76210;SDS011;65003;49.518;11.280;2023-07-13T13:29:46;2.60;;;1.10;;
76210;SDS011;65003;49.518;11.280;2023-07-13T13:32:13;3.40;;;1.20;;
76210;SDS011;65003;49.518;11.280;2023-07-13T13:34:39;1.87;;;0.87;;
76210;SDS011;65003;49.518;11.280;2023-07-13T13:37:18;1.90;;;0.93;;
76210;SDS011;65003;49.518;11.280;2023-07-13T13:39:45;4.47;;;1.23;;
76210;SDS011;65003;49.518;11.280;2023-07-13T13:42:12;2.40;;;0.90;;
76210;SDS011;65003;49.518;11.280;2023-07-13T13:44:38;3.60;;;1.07;;
76210;SDS011;65003;49.518;11.280;2023-07-13T13:47:07;3.70;;;0.90;;
76210;SDS011;65003;49.518;11.280;2023-07-13T13:49:32;2.27;;;0.97;;
76210;SDS011;65003;49.518;11.280;2023-07-13T13:51:58;1.30;;;0.90;;
76210;SDS011;65003;49.518;11.280;2023-07-13T13:54:25;3.77;;;1.20;;
76210;SDS011;65003;49.518;11.280;2023-07-13T13:56:52;3.63;;;1.17;;
76210;SDS011;65003;49.518;11.280;2023-07-13T13:59:18;2.53;;;1.00;;
76210;SDS011;65003;49.518;11.280;2023-07-13T14:01:45;1.60;;;0.90;;
76210;SDS011;65003;49.518;11.280;2023-07-13T14:04:15;1.70;;;0.80;;
76210;SDS011;65003;49.518;11.280;2023-07-13T14:06:40;4.33;;;0.77;;
76210;SDS011;65003;49.518;11.280;2023-07-13T14:09:10;3.67;;;1.07;;
76210;SDS011;65003;49.518;11.280;2023-07-13T14:11:37;2.13;;;1.10;;
76210;SDS011;65003;49.518;11.280;2023-07-13T14:14:04;2.17;;;0.97;;
76210;SDS011;65003;49.518;11.280;2023-07-13T14:16:31;2.63;;;0.70;;
76210;SDS011;65003;49.518;11.280;2023-07-13T14:18:57;3.93;;;0.83;;
76210;SDS011;65003;49.518;11.280;2023-07-13T14:21:24;5.60;;;1.00;;
76210;SDS011;65003;49.518;11.280;2023-07-13T14:23:50;1.83;;;1.23;;
76210;SDS011;65003;49.518;11.280;2023-07-13T14:26:18;1.73;;;0.90;;
76210;SDS011;65003;49.518;11.280;2023-07-13T14:28:46;2.30;;;0.87;;
76210;SDS011;65003;49.518;11.280;2023-07-13T14:31:12;1.73;;;0.60;;
76210;SDS011;65003;49.518;11.280;2023-07-13T14:33:38;1.90;;;0.90;;
76210;SDS011;65003;49.518;11.280;2023-07-13T14:36:15;4.37;;;1.10;;
76210;SDS011;65003;49.518;11.280;2023-07-13T14:38:38;2.93;;;0.83;;
76210;SDS011;65003;49.518;11.280;2023-07-13T14:41:07;3.53;;;0.87;;
76210;SDS011;65003;49.518;11.280;2023-07-13T14:43:31;1.90;;;1.00;;
76210;SDS011;65003;49.518;11.280;2023-07-13T14:45:58;2.60;;;0.70;;
76210;SDS011;65003;49.518;11.280;2023-07-13T14:48:24;5.70;;;1.23;;